Time;durP1;ratioP1;P1;durP2;ratioP2;P2;SDS_P1;SDS_P2;PMS_P1;PMS_P2;Temp;Humidity;BMP_temperature;BMP_pressure;BME280_temperature;BME280_humidity;BME280_pressure;Samples;Min_cycle;Max_cycle;Signal;HPM_P1;HPM_P2
2023/10/05 00:01:24;;;;;;;;;;;;;;;13.07;67.62;101752.50;15674852;28;20094;-48
2023/10/05 00:08:58;;;;;;;;;;;;;;;12.90;67.80;101743.94;15679140;28;19929;-47
2023/10/05 00:16:37;;;;;;;;;;;;;;;12.87;68.18;101742.50;15678923;28;19928;-49
2023/10/05 00:24:11;;;;;;;;;;;;;;;12.06;70.98;101746.75;15678406;28;19920;-47
2023/10/05 00:31:45;;;;;;;;;;;;;;;12.35;70.44;101745.72;15592207;22;20012;-50
2023/10/05 00:39:19;;;;;;;;;;;;;;;11.89;71.87;101738.97;15537773;28;19957;-50
2023/10/05 00:46:53;;;;;;;;;;;;;;;12.10;71.21;101729.19;15537394;28;20398;-50
2023/10/05 00:54:30;;;;;;;;;;;;;;;12.33;70.84;101737.84;15555932;28;19980;-51
2023/10/05 01:02:14;;;;;;;;;;;;;;;12.73;69.09;101727.28;15537421;28;19977;-48
2023/10/05 01:17:39;;;;;;;;;;;;;;;12.38;70.26;101696.84;15560729;28;19933;-50
2023/10/05 01:25:14;;;;;;;;;;;;;;;12.58;69.68;101687.00;15554881;28;20362;-50
2023/10/05 01:32:47;;;;;;;;;;;;;;;12.37;69.74;101679.88;15561800;28;20016;-48
2023/10/05 01:40:24;;;;;;;;;;;;;;;12.59;68.80;101663.59;15544638;28;19921;-50
2023/10/05 01:48:01;;;;;;;;;;;;;;;12.59;69.03;101667.16;15549272;28;20366;-50
2023/10/05 01:55:35;;;;;;;;;;;;;;;12.43;69.33;101662.09;15543023;28;20397;-50
2023/10/05 02:03:09;;;;;;;;;;;;;;;12.31;69.70;101666.38;15538772;28;19944;-49
2023/10/05 02:10:46;;;;;;;;;;;;;;;12.56;69.00;101648.69;15533608;28;20298;-49
2023/10/05 02:18:24;;;;;;;;;;;;;;;12.36;69.99;101653.16;15543128;28;19976;-50
2023/10/05 02:26:00;;;;;;;;;;;;;;;12.45;69.06;101641.16;15541390;28;19925;-49
2023/10/05 02:33:33;;;;;;;;;;;;;;;12.46;69.20;101642.84;15542081;28;19931;-50
2023/10/05 02:41:09;;;;;;;;;;;;;;;12.51;69.11;101619.66;15543916;28;20378;-50
2023/10/05 02:48:43;;;;;;;;;;;;;;;12.32;69.08;101617.72;15544351;28;20465;-51
2023/10/05 02:56:20;;;;;;;;;;;;;;;12.57;68.58;101609.94;15560823;28;19921;-51
2023/10/05 03:03:55;;;;;;;;;;;;;;;12.19;69.72;101612.28;15543837;28;19983;-53
2023/10/05 03:11:37;;;;;;;;;;;;;;;12.40;68.66;101609.47;15537430;28;19928;-48
2023/10/05 03:19:14;;;;;;;;;;;;;;;12.55;68.43;101617.41;15534267;28;20008;-49
2023/10/05 03:26:51;;;;;;;;;;;;;;;12.38;68.74;101605.31;15542220;28;19977;-48
2023/10/05 03:34:26;;;;;;;;;;;;;;;12.60;68.03;101596.09;15531454;28;19922;-50
2023/10/05 03:42:00;;;;;;;;;;;;;;;12.51;68.36;101597.28;15534077;28;19921;-50
2023/10/05 03:49:34;;;;;;;;;;;;;;;12.59;67.84;101585.50;15532248;28;19925;-49
2023/10/05 03:57:11;;;;;;;;;;;;;;;12.45;68.06;101580.09;15539957;28;20301;-49
2023/10/05 04:04:45;;;;;;;;;;;;;;;12.35;68.93;101585.00;15540893;28;19928;-51
2023/10/05 04:12:20;;;;;;;;;;;;;;;12.25;68.66;101569.22;15539534;28;19953;-51
2023/10/05 04:19:53;;;;;;;;;;;;;;;12.40;68.22;101573.63;15557447;28;19957;-51
2023/10/05 04:27:29;;;;;;;;;;;;;;;12.34;68.49;101575.28;15539741;28;20051;-51
2023/10/05 04:35:11;;;;;;;;;;;;;;;12.31;69.18;101559.53;15556962;28;19921;-53
2023/10/05 04:42:46;;;;;;;;;;;;;;;12.71;67.83;101549.69;15556267;28;20358;-53
2023/10/05 04:50:19;;;;;;;;;;;;;;;12.39;68.68;101543.19;15548360;28;19922;-50
2023/10/05 04:58:11;;;;;;;;;;;;;;;12.59;67.97;101534.31;15545227;28;20298;-52
2023/10/05 05:06:08;;;;;;;;;;;;;;;12.63;67.83;101531.00;15553546;28;20009;-50
2023/10/05 05:13:42;;;;;;;;;;;;;;;12.70;67.87;101525.66;15558369;28;19928;-50
2023/10/05 05:21:15;;;;;;;;;;;;;;;12.73;68.25;101519.88;15527749;28;19932;-51
2023/10/05 05:28:49;;;;;;;;;;;;;;;12.50;69.32;101523.75;15536769;28;19928;-51
2023/10/05 05:36:24;;;;;;;;;;;;;;;12.65;68.70;101507.41;15554885;28;20386;-51
2023/10/05 05:44:00;;;;;;;;;;;;;;;12.41;69.59;101513.38;15524788;28;20389;-51
2023/10/05 05:51:33;;;;;;;;;;;;;;;12.72;68.76;101510.94;15551633;28;20028;-51
2023/10/05 05:59:08;;;;;;;;;;;;;;;12.89;68.37;101515.94;15547371;28;19921;-51
2023/10/05 06:06:42;;;;;;;;;;;;;;;12.49;69.40;101470.09;15564328;28;19921;-51
2023/10/05 06:14:17;;;;;;;;;;;;;;;12.80;69.30;101531.47;15565510;28;20374;-50
2023/10/05 06:21:51;;;;;;;;;;;;;;;12.91;69.28;101516.53;15563694;28;20305;-53
2023/10/05 06:29:26;;;;;;;;;;;;;;;13.15;69.06;101520.47;15624865;23;19978;-46
2023/10/05 06:37:01;;;;;;;;;;;;;;;13.63;67.44;101523.78;15681344;28;19924;-48
2023/10/05 06:44:36;;;;;;;;;;;;;;;13.66;66.90;101511.72;15660453;28;19921;-46
2023/10/05 06:52:09;;;;;;;;;;;;;;;13.77;67.26;101520.00;15655622;28;19931;-49
2023/10/05 06:59:43;;;;;;;;;;;;;;;13.93;66.47;101510.59;15657260;28;19997;-48
2023/10/05 07:07:16;;;;;;;;;;;;;;;13.53;67.72;101516.13;15680898;28;19921;-47
2023/10/05 07:14:50;;;;;;;;;;;;;;;14.18;65.85;101509.91;15664516;28;19943;-49
2023/10/05 07:26:33;;;;;;;;;;;;;;;14.15;66.40;101524.66;15789576;27;19917;-48
2023/10/05 07:34:06;;;;;;;;;;;;;;;13.99;66.49;101536.75;15749813;22;19945;-53
2023/10/05 07:41:43;;;;;;;;;;;;;;;14.30;66.16;101554.06;15800992;28;19950;-50
2023/10/05 07:49:16;;;;;;;;;;;;;;;14.65;64.76;101578.88;15786036;28;20027;-51
2023/10/05 07:56:52;;;;;;;;;;;;;;;14.43;65.30;101581.00;15791673;28;19974;-50
2023/10/05 08:04:25;;;;;;;;;;;;;;;15.30;63.34;101573.22;15773419;28;20403;-48
2023/10/05 08:12:00;;;;;;;;;;;;;;;15.84;62.11;101581.66;15790124;28;19925;-49
2023/10/05 08:19:35;;;;;;;;;;;;;;;16.28;60.82;101573.25;15791798;28;19924;-48
2023/10/05 08:27:14;;;;;;;;;;;;;;;16.09;60.83;101595.97;15791293;28;19947;-51
2023/10/05 08:34:47;;;;;;;;;;;;;;;15.39;62.98;101600.78;15765639;28;19946;-51
2023/10/05 08:42:21;;;;;;;;;;;;;;;15.59;62.64;101593.34;15748047;28;19936;-53
2023/10/05 08:49:54;;;;;;;;;;;;;;;15.76;63.32;101586.34;15734059;28;19928;-49
2023/10/05 09:04:29;;;;;;;0.10;0.10;;;;;;;15.64;63.30;101585.41;15792762;27;20393;-52
2023/10/05 09:12:32;;;;;;;0.65;0.30;;;;;;;15.81;62.41;101583.78;15717157;22;77501;-46
2023/10/05 09:20:24;;;;;;;0.00;0.00;;;;;;;16.21;62.33;101591.44;15710252;28;20040;-49
2023/10/05 09:28:07;;;;;;;0.08;0.08;;;;;;;16.76;59.75;101582.44;15687797;28;20142;-53
2023/10/05 09:35:46;;;;;;;0.20;0.20;;;;;;;16.39;60.21;101587.91;15705185;28;20098;-50
2023/10/05 09:43:28;;;;;;;0.00;0.00;;;;;;;16.90;59.06;101589.31;15692513;28;20059;-46
2023/10/05 09:51:03;;;;;;;0.00;0.00;;;;;;;16.47;59.05;101592.19;15698815;28;20545;-47
2023/10/05 09:58:39;;;;;;;0.38;0.10;;;;;;;16.35;59.70;101589.41;15705852;28;20045;-45
2023/10/05 10:06:18;;;;;;;0.00;0.00;;;;;;;16.80;58.36;101599.91;15731998;28;20072;-50
2023/10/05 10:14:01;;;;;;;1.40;0.30;;;;;;;17.42;56.90;101591.41;15668071;28;20128;-49
2023/10/05 10:21:41;;;;;;;1.35;0.95;;;;;;;16.63;58.84;101605.09;15681337;28;20041;-52
2023/10/05 10:29:17;;;;;;;0.52;0.52;;;;;;;16.49;59.27;101601.72;15675919;28;20045;-47
2023/10/05 10:36:53;;;;;;;3.33;0.73;;;;;;;16.68;58.31;101596.28;15684503;28;20049;-45
2023/10/05 10:44:28;;;;;;;0.00;0.00;;;;;;;16.63;58.51;101605.09;15660853;28;20052;-49
2023/10/05 10:52:09;;;;;;;0.00;0.00;;;;;;;16.22;59.80;101620.19;15686210;28;20107;-51
2023/10/05 10:59:42;;;;;;;1.67;0.80;;;;;;;15.79;62.78;101633.78;15660757;28;20057;-48
2023/10/05 11:07:17;;;;;;;0.00;0.00;;;;;;;15.98;61.47;101613.78;15672613;28;20068;-45
2023/10/05 11:15:08;;;;;;;0.75;0.28;;;;;;;15.87;61.16;101621.84;15682398;28;20539;-46
2023/10/05 11:22:43;;;;;;;4.65;2.47;;;;;;;16.00;60.58;101624.41;15672501;28;20136;-49
2023/10/05 11:30:21;;;;;;;0.38;0.38;;;;;;;15.86;60.76;101631.03;15668684;28;20041;-48
2023/10/05 11:37:59;;;;;;;3.20;1.23;;;;;;;14.97;68.86;101660.81;15661234;28;20114;-47
2023/10/05 11:45:33;;;;;;;0.00;0.00;;;;;;;14.84;71.26;101668.97;15654959;28;20080;-47
2023/10/05 11:53:12;;;;;;;0.45;0.38;;;;;;;15.37;69.68;101652.41;15657281;28;20049;-50
2023/10/05 12:00:45;;;;;;;22.27;1.65;;;;;;;15.17;68.76;101649.88;15637959;28;20038;-46
2023/10/05 12:08:20;;;;;;;0.00;0.00;;;;;;;15.09;67.91;101650.13;15655674;28;20472;-46
2023/10/05 12:15:53;;;;;;;0.00;0.00;;;;;;;15.42;66.82;101649.06;15676417;28;20048;-46
2023/10/05 12:23:28;;;;;;;;;;;;;;;15.45;65.41;101645.91;15661795;28;20102;-49
2023/10/05 12:31:02;;;;;;;0.30;0.30;;;;;;;15.34;66.60;101661.00;15677005;28;19920;-47
2023/10/05 12:38:37;;;;;;;0.00;0.00;;;;;;;14.97;69.07;101671.63;15669684;28;20140;-48
2023/10/05 12:46:11;;;;;;;0.00;0.00;;;;;;;15.27;68.24;101661.03;15653782;28;20037;-47
2023/10/05 12:53:45;;;;;;;0.00;0.00;;;;;;;15.80;66.46;101655.19;15673444;28;20099;-48
2023/10/05 13:01:18;;;;;;;3.72;1.08;;;;;;;15.94;66.23;101641.53;15650585;28;20033;-50
2023/10/05 13:08:56;;;;;;;;;;;;;;;16.25;64.76;101646.00;15657339;28;20049;-46
2023/10/05 13:16:32;;;;;;;0.88;0.20;;;;;;;16.43;64.81;101651.44;15674311;28;19956;-48
2023/10/05 13:24:11;;;;;;;0.30;0.30;;;;;;;16.52;63.86;101652.78;15656877;28;20132;-47
2023/10/05 13:31:47;;;;;;;0.00;0.00;;;;;;;15.35;70.17;101714.03;15675069;28;20067;-51
2023/10/05 13:39:21;;;;;;;0.00;0.00;;;;;;;14.72;75.59;101732.84;15655484;28;20049;-46
2023/10/05 13:46:59;;;;;;;0.10;0.10;;;;;;;14.10;77.20;101742.31;15677992;28;20498;-48
2023/10/05 13:54:35;;;;;;;0.10;0.10;;;;;;;13.98;75.80;101736.69;15684701;28;20111;-46
2023/10/05 14:02:08;;;;;;;0.00;0.00;;;;;;;14.00;75.35;101723.84;15631611;28;20389;-50
2023/10/05 14:09:44;;;;;;;0.00;0.00;;;;;;;13.92;76.13;101732.16;15621838;28;20049;-47
2023/10/05 14:17:17;;;;;;;0.00;0.00;;;;;;;13.53;77.75;101733.78;15677224;28;20053;-46
2023/10/05 14:24:54;;;;;;;0.00;0.00;;;;;;;13.59;77.74;101751.00;15652556;28;20370;-45
2023/10/05 14:32:31;;;;;;;0.10;0.10;;;;;;;13.01;78.88;101733.41;15663432;28;20490;-48
2023/10/05 14:40:13;;;;;;;0.00;0.00;;;;;;;12.89;80.08;101753.06;15663107;28;20045;-49
2023/10/05 14:47:46;;;;;;;0.00;0.00;;;;;;;13.05;80.21;101754.56;15656073;28;20128;-49
2023/10/05 14:55:21;;;;;;;0.15;0.15;;;;;;;12.79;81.67;101758.00;15679694;28;20072;-46
2023/10/05 15:02:54;;;;;;;0.00;0.00;;;;;;;12.84;82.60;101742.06;15670101;28;20041;-46
2023/10/05 15:10:31;;;;;;;0.00;0.00;;;;;;;12.79;81.84;101731.88;15667537;28;20080;-47
2023/10/05 15:18:04;;;;;;;0.00;0.00;;;;;;;12.71;81.58;101740.94;15698360;23;20479;-50
2023/10/05 15:25:40;;;;;;;0.50;0.43;;;;;;;12.38;83.10;101745.31;15688035;28;20551;-51
2023/10/05 15:33:13;;;;;;;0.00;0.00;;;;;;;12.62;81.86;101738.63;15667839;28;20552;-51
2023/10/05 15:40:48;;;;;;;0.43;0.43;;;;;;;12.85;81.04;101746.41;15673403;28;20076;-51
2023/10/05 15:48:21;;;;;;;0.10;0.10;;;;;;;12.76;81.13;101765.44;15666352;28;20594;-50
2023/10/05 15:55:56;;;;;;;0.00;0.00;;;;;;;13.07;80.02;101764.13;15673962;28;20447;-52
2023/10/05 16:03:30;;;;;;;0.00;0.00;;;;;;;13.26;78.92;101774.16;15668772;28;20044;-51
2023/10/05 16:11:05;;;;;;;0.00;0.00;;;;;;;13.52;76.77;101786.91;15667123;28;20048;-53
2023/10/05 16:18:40;;;;;;;0.00;0.00;;;;;;;12.85;79.25;101794.91;15668083;28;20068;-54
2023/10/05 16:26:15;;;;;;;0.90;0.35;;;;;;;12.89;79.26;101790.78;15659217;28;20529;-49
2023/10/05 16:33:48;;;;;;;0.00;0.00;;;;;;;13.09;78.32;101812.44;15656966;28;20076;-54
2023/10/05 16:41:23;;;;;;;0.00;0.00;;;;;;;13.23;76.25;101817.69;15675137;28;20445;-49
2023/10/05 16:48:57;;;;;;;0.00;0.00;;;;;;;12.92;76.60;101820.88;15671729;28;20039;-49
2023/10/05 16:56:31;;;;;;;0.00;0.00;;;;;;;13.27;75.23;101827.06;15671821;28;20045;-53
2023/10/05 17:04:08;;;;;;;0.00;0.00;;;;;;;13.23;73.60;101841.97;15674617;28;20045;-54
2023/10/05 17:11:42;;;;;;;0.00;0.00;;;;;;;13.32;73.77;101836.41;15675072;28;20041;-52
2023/10/05 17:19:16;;;;;;;0.13;0.10;;;;;;;13.23;73.52;101849.22;15675779;28;20060;-51
2023/10/05 17:26:51;;;;;;;0.38;0.38;;;;;;;13.00;73.31;101828.75;15675057;28;20080;-53
2023/10/05 17:34:25;;;;;;;0.00;0.00;;;;;;;12.88;74.07;101872.66;15687133;28;20575;-50
2023/10/05 17:41:59;;;;;;;0.00;0.00;;;;;;;12.63;73.43;101877.66;15667685;28;20047;-50
2023/10/05 17:49:33;;;;;;;0.20;0.20;;;;;;;12.56;73.99;101879.47;15668895;28;20049;-50
2023/10/05 17:57:10;;;;;;;;;;;;;;;12.64;74.14;101885.56;15682665;28;20136;-49
2023/10/05 18:04:44;;;;;;;1.15;0.40;;;;;;;12.60;73.55;101856.50;15648765;28;19929;-47
2023/10/05 18:12:20;;;;;;;0.45;0.32;;;;;;;12.31;74.39;101893.34;15677835;28;20372;-48
2023/10/05 18:19:53;;;;;;;0.17;0.17;;;;;;;12.30;73.87;101904.31;15678967;28;20073;-51
2023/10/05 18:27:28;;;;;;;0.60;0.52;;;;;;;12.22;74.25;101906.13;15684286;28;20063;-52
2023/10/05 18:35:01;;;;;;;0.30;0.30;;;;;;;12.23;73.80;101910.47;15682749;28;20307;-49
2023/10/05 18:42:38;;;;;;;0.15;0.15;;;;;;;12.19;74.47;101919.94;15681935;28;20063;-49
2023/10/05 18:50:13;;;;;;;0.10;0.10;;;;;;;12.11;75.67;101908.47;15675253;28;20101;-49
2023/10/05 18:57:47;;;;;;;0.00;0.00;;;;;;;12.23;75.44;101915.84;15675601;28;20043;-50
2023/10/05 19:05:21;;;;;;;0.08;0.08;;;;;;;12.20;75.32;101915.41;15682044;28;20075;-50
2023/10/05 19:12:55;;;;;;;3.03;0.70;;;;;;;11.95;75.16;101880.78;15681428;28;20554;-49
2023/10/05 19:20:29;;;;;;;0.00;0.00;;;;;;;12.20;75.83;101939.63;15674355;28;20043;-53
2023/10/05 19:28:07;;;;;;;0.45;0.30;;;;;;;12.19;75.80;101922.63;15649473;28;20073;-50
2023/10/05 19:35:41;;;;;;;0.15;0.15;;;;;;;12.44;75.17;101946.47;15660790;28;20040;-52
2023/10/05 19:43:16;;;;;;;0.22;0.22;;;;;;;12.34;75.85;101957.56;15671502;28;20052;-51
2023/10/05 19:50:49;;;;;;;0.80;0.52;;;;;;;12.35;76.01;101969.16;15666584;28;20075;-49
2023/10/05 19:58:25;;;;;;;0.00;0.00;;;;;;;12.57;75.69;101965.44;15655876;28;20048;-50
2023/10/05 20:05:58;;;;;;;0.00;0.00;;;;;;;12.68;74.42;101972.16;15666090;28;20048;-50
2023/10/05 20:13:32;;;;;;;0.00;0.00;;;;;;;12.40;74.47;101978.38;15667769;28;20428;-49
2023/10/05 20:21:10;;;;;;;0.10;0.10;;;;;;;12.18;75.13;101971.28;15656895;28;20122;-49
2023/10/05 20:28:44;;;;;;;0.00;0.00;;;;;;;12.23;75.32;101972.38;15664656;28;20128;-51
2023/10/05 20:36:18;;;;;;;19.65;1.63;;;;;;;12.07;74.61;101966.38;15645777;28;20045;-50
2023/10/05 20:43:52;;;;;;;;;;;;;;;12.04;74.64;101981.06;15676137;28;20060;-52
2023/10/05 20:51:26;;;;;;;0.10;0.10;;;;;;;11.90;74.98;101980.09;15674515;28;19924;-51
2023/10/05 20:59:01;;;;;;;0.00;0.00;;;;;;;12.09;73.99;101978.66;15666607;28;20132;-53
2023/10/05 21:06:35;;;;;;;1.10;0.60;;;;;;;12.25;73.96;101985.63;15643373;28;20057;-53
2023/10/05 21:14:10;;;;;;;0.20;0.20;;;;;;;12.14;74.07;101984.28;15611795;23;20049;-52
2023/10/05 21:21:43;;;;;;;0.00;0.00;;;;;;;11.82;74.05;101982.88;15548796;28;20124;-52
2023/10/05 21:29:17;;;;;;;0.10;0.10;;;;;;;11.77;74.09;101987.13;15549891;28;20045;-48
2023/10/05 21:36:50;;;;;;;0.08;0.08;;;;;;;11.81;73.67;101983.03;15545089;28;20151;-53
2023/10/05 21:44:25;;;;;;;0.00;0.00;;;;;;;11.62;74.17;101982.59;15544381;28;20641;-54
2023/10/05 21:51:58;;;;;;;0.08;0.08;;;;;;;11.43;74.13;101980.47;15550277;28;20038;-56
2023/10/05 21:59:37;;;;;;;0.00;0.00;;;;;;;11.42;74.59;101990.41;15544598;28;20137;-49
2023/10/05 22:07:11;;;;;;;0.10;0.10;;;;;;;11.45;74.10;101994.56;15558215;28;20126;-53
2023/10/05 22:14:45;;;;;;;0.00;0.00;;;;;;;11.28;74.59;101993.88;15554050;28;20052;-50
2023/10/05 22:22:19;;;;;;;0.73;0.50;;;;;;;11.23;74.16;102001.66;15555860;28;20214;-58
2023/10/05 22:29:54;;;;;;;0.00;0.00;;;;;;;11.21;74.47;102009.09;15540104;28;20137;-54
2023/10/05 22:37:27;;;;;;;0.30;0.30;;;;;;;11.26;74.02;102016.59;15556146;28;20534;-51
2023/10/05 22:45:01;;;;;;;0.00;0.00;;;;;;;11.14;73.94;102010.81;15554819;28;20046;-53
2023/10/05 22:52:35;;;;;;;1.27;1.13;;;;;;;11.05;74.05;102010.09;15552717;28;20402;-50
2023/10/05 23:00:12;;;;;;;0.70;0.70;;;;;;;10.85;75.07;102007.06;15554454;28;20549;-56
2023/10/05 23:07:45;;;;;;;0.20;0.20;;;;;;;11.03;74.73;102006.72;15556262;28;20533;-57
2023/10/05 23:15:20;;;;;;;0.00;0.00;;;;;;;11.08;74.45;102017.75;15552082;28;20469;-51
2023/10/05 23:22:53;;;;;;;0.10;0.10;;;;;;;11.18;75.81;102023.72;15551641;28;20042;-52
2023/10/05 23:30:30;;;;;;;0.47;0.25;;;;;;;11.41;75.08;102012.91;15556111;28;20034;-55
2023/10/05 23:38:11;;;;;;;0.10;0.10;;;;;;;11.34;75.61;102019.22;15549099;28;20503;-57
2023/10/05 23:45:46;;;;;;;0.00;0.00;;;;;;;11.56;75.27;102017.44;15550860;28;20052;-54
2023/10/05 23:53:20;;;;;;;0.00;0.00;;;;;;;11.68;75.29;102021.34;15551191;28;20048;-54
